SPHY

Details ICAO SPHY (ANS)
Name ANDAHUAYLAS
Region Peru
Timezone America/Lima (UTC-5.0)
Plans Departing 6
Arriving 6
Stats Elevation 11,300 ft / 3,444 m (AMSL)
Location -13.706410° -73.350376°
Runways 1
Magnetic Variation 4.418° W
Sunrise 2018-05-27 11:10:10 UTC / 2018-05-27 06:10:10 Local
Sunset 2018-05-27 22:33:52 UTC / 2018-05-27 17:33:52 Local
Advertisement - Login to hide

Runways

ID Width Length Bearing (true) Bearing (mag) Surface Threshold Offset Overrun Length
03 98 ft / 30 m 8,397 ft / 2,560 m 31.64° 36.06° Asphalt 0 ft / 0 m 250 ft / 76 m
21 98 ft / 30 m 8,397 ft / 2,560 m 211.64° 216.06° Asphalt 0 ft / 0 m 200 ft / 61 m

Map

Weather


0- 5 10 15 20 25 30 35+ Temperature / ° C

Clouds and Precipitation
Forecast for 2018-05-27 18:00 UTC. Updated 3 hours ago

Ground ~20,000 ft ~40,000 ft Winds

METAR

SPHY 271900Z /////KT CAVOK 15/03 Q1035 RMK BIRD HAZARD RWY03/21 PP000

TAF

SPHY 271700Z 2718/2818 36010KT CAVOK TX16/2719Z TNM05/2811Z BECMG 2722/2800 00000KT
Warning: Do not use this data for real-world aviation or navigation. No guarantee of current accuracy is given.